Time;durP1;ratioP1;P1;durP2;ratioP2;P2;SDS_P1;SDS_P2;PMS_P1;PMS_P2;Temp;Humidity;BMP_temperature;BMP_pressure;BME280_temperature;BME280_humidity;BME280_pressure;Samples;Min_cycle;Max_cycle;Signal;HPM_P1;HPM_P2
2023/08/11 00:02:18;;;;;;;16.58;13.23;;;;;;;;;;5070892;28;20128;-69
2023/08/11 00:04:45;;;;;;;16.80;12.80;;;;;;;;;;5070833;28;20093;-70
2023/08/11 00:07:11;;;;;;;16.33;12.50;;;;;;;;;;5070581;28;20070;-69
2023/08/11 00:09:37;;;;;;;14.75;13.10;;;;;;;;;;5052746;28;20538;-70
2023/08/11 00:12:10;;;;;;;14.73;12.35;;;;;;;;;;5070489;28;20037;-70
2023/08/11 00:14:36;;;;;;;14.93;12.38;;;;;;;;;;5070273;28;20027;-70
2023/08/11 00:17:03;;;;;;;15.70;12.70;;;;;;;;;;5070553;28;20032;-70
2023/08/11 00:19:29;;;;;;;18.92;13.75;;;;;;;;;;5071002;28;20060;-70
2023/08/11 00:21:56;;;;;;;18.10;12.80;;;;;;;;;;5070557;28;20060;-70
2023/08/11 00:24:23;;;;;;;18.05;13.55;;;;;;;;;;5070093;28;20032;-70
2023/08/11 00:26:51;;;;;;;17.88;12.45;;;;;;;;;;5052992;28;20032;-70
2023/08/11 00:29:17;;;;;;;17.90;13.18;;;;;;;;;;5053042;28;20060;-70
2023/08/11 00:31:45;;;;;;;18.27;12.68;;;;;;;;;;5070167;28;20099;-70
2023/08/11 00:34:11;;;;;;;19.42;12.98;;;;;;;;;;5070161;28;20235;-70
2023/08/11 00:36:37;;;;;;;14.98;12.15;;;;;;;;;;5051802;28;20041;-70
2023/08/11 00:39:03;;;;;;;18.13;13.75;;;;;;;;;;5070052;28;20063;-70
2023/08/11 00:41:30;;;;;;;17.85;13.90;;;;;;;;;;5052507;28;20041;-71
2023/08/11 00:43:56;;;;;;;18.65;13.23;;;;;;;;;;5052529;28;20032;-70
2023/08/11 00:46:24;;;;;;;16.55;12.48;;;;;;;;;;5052451;28;20032;-70
2023/08/11 00:48:53;;;;;;;19.85;12.15;;;;;;;;;;5070325;28;20054;-70
2023/08/11 00:51:21;;;;;;;18.45;13.02;;;;;;;;;;5036022;28;20477;-70
2023/08/11 00:53:48;;;;;;;18.27;12.70;;;;;;;;;;5070097;28;20033;-70
2023/08/11 00:56:14;;;;;;;17.50;12.52;;;;;;;;;;5070128;28;20032;-69
2023/08/11 00:58:43;;;;;;;17.33;13.02;;;;;;;;;;5070068;28;20086;-70
2023/08/11 01:01:10;;;;;;;17.83;13.38;;;;;;;;;;5070146;28;20082;-70
2023/08/11 01:03:36;;;;;;;18.45;13.60;;;;;;;;;;5070140;28;20039;-69
2023/08/11 01:06:14;;;;;;;15.82;12.75;;;;;;;;;;5069759;28;20406;-70
2023/08/11 01:08:40;;;;;;;19.27;13.23;;;;;;;;;;5070042;28;20115;-69
2023/08/11 01:11:25;;;;;;;19.95;14.80;;;;;;;;;;5052028;28;20396;-69
2023/08/11 01:13:54;;;;;;;19.73;13.80;;;;;;;;;;5052092;28;20052;-69
2023/08/11 01:16:21;;;;;;;22.35;15.02;;;;;;;;;;5051951;28;20090;-69
2023/08/11 01:18:48;;;;;;;18.80;15.30;;;;;;;;;;5070426;28;20079;-70
2023/08/11 01:21:14;;;;;;;20.67;14.63;;;;;;;;;;5054046;28;20043;-70
2023/08/11 01:23:41;;;;;;;17.40;14.32;;;;;;;;;;5089887;28;20104;-70
2023/08/11 01:26:08;;;;;;;21.80;15.45;;;;;;;;;;5072223;28;20450;-70
2023/08/11 01:28:34;;;;;;;16.10;14.40;;;;;;;;;;5089899;28;20076;-69
2023/08/11 01:31:00;;;;;;;22.17;15.13;;;;;;;;;;5090356;28;20484;-70
2023/08/11 01:33:27;;;;;;;22.23;14.52;;;;;;;;;;5071962;28;20063;-69
2023/08/11 01:35:53;;;;;;;23.52;15.88;;;;;;;;;;5054609;28;20060;-71
2023/08/11 01:38:19;;;;;;;19.23;16.15;;;;;;;;;;5071851;28;20400;-70
2023/08/11 01:40:47;;;;;;;19.73;16.73;;;;;;;;;;5089804;28;20040;-70
2023/08/11 01:43:15;;;;;;;19.50;16.40;;;;;;;;;;5089767;28;20097;-69
2023/08/11 01:45:43;;;;;;;22.35;16.02;;;;;;;;;;5089372;28;20440;-69
2023/08/11 01:48:10;;;;;;;20.60;17.10;;;;;;;;;;5089749;28;20588;-70
2023/08/11 01:50:37;;;;;;;22.75;17.58;;;;;;;;;;5092607;28;20524;-69
2023/08/11 01:53:04;;;;;;;22.52;18.40;;;;;;;;;;5093417;28;20089;-70
2023/08/11 01:55:31;;;;;;;22.50;17.80;;;;;;;;;;5093277;28;20024;-70
2023/08/11 01:57:58;;;;;;;22.55;18.52;;;;;;;;;;5093234;28;20035;-69
2023/08/11 02:00:25;;;;;;;25.63;19.45;;;;;;;;;;5075035;28;20135;-70
2023/08/11 02:02:52;;;;;;;26.08;19.45;;;;;;;;;;5058589;28;20028;-70
2023/08/11 02:05:18;;;;;;;25.23;19.23;;;;;;;;;;5093140;28;20088;-69
2023/08/11 02:07:45;;;;;;;30.08;19.55;;;;;;;;;;5093346;28;20071;-69
2023/08/11 02:10:11;;;;;;;26.15;20.20;;;;;;;;;;5093484;28;20100;-70
2023/08/11 02:12:38;;;;;;;27.25;20.27;;;;;;;;;;5075207;28;20028;-70
2023/08/11 02:15:05;;;;;;;24.73;20.38;;;;;;;;;;5074869;28;20115;-69
2023/08/11 02:17:31;;;;;;;26.95;20.88;;;;;;;;;;5093446;28;20031;-70
2023/08/11 02:19:58;;;;;;;24.98;20.90;;;;;;;;;;5075060;28;20152;-69
2023/08/11 02:22:25;;;;;;;28.33;21.05;;;;;;;;;;5074676;28;20036;-69
2023/08/11 02:24:51;;;;;;;25.38;20.42;;;;;;;;;;5092728;28;20485;-70
2023/08/11 02:27:17;;;;;;;27.60;22.23;;;;;;;;;;5058173;28;20356;-68
2023/08/11 02:29:44;;;;;;;28.08;22.00;;;;;;;;;;5075038;28;20573;-69
2023/08/11 02:32:11;;;;;;;30.65;20.50;;;;;;;;;;5075026;28;20070;-69
2023/08/11 02:34:38;;;;;;;28.48;21.52;;;;;;;;;;5074870;28;20028;-70
2023/08/11 02:37:04;;;;;;;29.85;23.17;;;;;;;;;;5092649;28;20024;-69
2023/08/11 02:39:30;;;;;;;38.08;25.40;;;;;;;;;;5092926;28;20127;-70
2023/08/11 02:41:56;;;;;;;28.23;22.92;;;;;;;;;;5074719;28;20081;-70
2023/08/11 02:44:22;;;;;;;31.73;23.52;;;;;;;;;;5074083;28;20047;-69
2023/08/11 02:46:49;;;;;;;31.33;24.15;;;;;;;;;;5074275;28;20400;-69
2023/08/11 02:49:15;;;;;;;33.80;25.45;;;;;;;;;;5092235;28;20424;-69
2023/08/11 02:51:42;;;;;;;31.60;24.48;;;;;;;;;;5074647;28;20039;-70
2023/08/11 02:54:08;;;;;;;33.13;25.65;;;;;;;;;;5092550;28;20032;-69
2023/08/11 02:56:34;;;;;;;33.65;26.73;;;;;;;;;;5073719;28;20051;-70
2023/08/11 02:59:00;;;;;;;32.17;26.80;;;;;;;;;;5092284;28;20071;-70
2023/08/11 03:01:27;;;;;;;37.97;26.65;;;;;;;;;;5092126;28;20035;-70
2023/08/11 03:03:53;;;;;;;37.50;28.75;;;;;;;;;;5073631;28;20032;-70
2023/08/11 03:06:20;;;;;;;38.75;27.50;;;;;;;;;;5057075;28;20047;-70
2023/08/11 03:08:47;;;;;;;36.17;28.38;;;;;;;;;;5057198;28;20073;-70
2023/08/11 03:11:13;;;;;;;34.55;28.92;;;;;;;;;;5073624;28;20497;-69
2023/08/11 03:13:40;;;;;;;35.83;29.23;;;;;;;;;;5073533;28;20055;-70
2023/08/11 03:16:07;;;;;;;40.38;30.05;;;;;;;;;;5073412;28;20024;-70
2023/08/11 03:18:33;;;;;;;43.35;30.83;;;;;;;;;;5073781;28;20028;-70
2023/08/11 03:21:02;;;;;;;44.00;32.13;;;;;;;;;;5073395;28;20146;-69
2023/08/11 03:23:28;;;;;;;40.03;29.80;;;;;;;;;;5073573;28;20040;-70
2023/08/11 03:25:56;;;;;;;43.22;31.05;;;;;;;;;;5056812;28;20032;-70
2023/08/11 03:28:23;;;;;;;39.10;31.27;;;;;;;;;;5056845;28;20400;-70
2023/08/11 03:30:49;;;;;;;38.97;30.83;;;;;;;;;;5073294;28;20032;-70
2023/08/11 03:33:16;;;;;;;45.53;32.38;;;;;;;;;;5073663;28;20032;-74
2023/08/11 03:35:49;;;;;;;45.15;34.42;;;;;;;;;;5073105;28;20028;-69
2023/08/11 03:38:15;;;;;;;47.33;33.65;;;;;;;;;;5073595;28;20024;-69
2023/08/11 03:40:41;;;;;;;45.33;35.15;;;;;;;;;;5073212;28;20028;-70
2023/08/11 03:43:08;;;;;;;42.95;34.67;;;;;;;;;;5056746;28;20036;-69
2023/08/11 03:45:35;;;;;;;41.10;33.20;;;;;;;;;;5073077;28;20085;-70
2023/08/11 03:48:06;;;;;;;47.63;35.53;;;;;;;;;;5091409;28;20044;-69
2023/08/11 03:50:33;;;;;;;44.78;34.05;;;;;;;;;;5072999;28;20556;-70
2023/08/11 03:52:59;;;;;;;50.25;36.65;;;;;;;;;;5091558;28;20046;-70
2023/08/11 03:55:25;;;;;;;49.03;37.55;;;;;;;;;;5072888;28;20578;-70
2023/08/11 03:57:51;;;;;;;46.47;35.53;;;;;;;;;;5091062;28;20036;-70
2023/08/11 04:00:20;;;;;;;48.40;37.40;;;;;;;;;;5073312;28;20032;-69
2023/08/11 04:02:55;;;;;;;48.72;36.10;;;;;;;;;;5057898;28;20032;-69
2023/08/11 04:05:21;;;;;;;46.20;37.40;;;;;;;;;;5072804;28;20047;-70
2023/08/11 04:07:48;;;;;;;52.15;40.03;;;;;;;;;;5090700;28;20092;-70
2023/08/11 04:10:15;;;;;;;54.28;39.40;;;;;;;;;;5073407;28;20047;-69
2023/08/11 04:12:41;;;;;;;52.70;39.83;;;;;;;;;;5072024;28;20024;-69
2023/08/11 04:15:07;;;;;;;58.22;41.78;;;;;;;;;;5072706;28;20034;-70
2023/08/11 04:17:33;;;;;;;57.65;39.70;;;;;;;;;;5056060;28;20040;-69
2023/08/11 04:20:00;;;;;;;50.10;39.97;;;;;;;;;;5056008;28;20043;-70
2023/08/11 04:22:28;;;;;;;50.80;38.90;;;;;;;;;;5071629;28;20024;-68
2023/08/11 04:24:54;;;;;;;56.92;40.15;;;;;;;;;;5071822;28;20056;-70
2023/08/11 04:27:21;;;;;;;57.63;42.13;;;;;;;;;;5072085;28;20127;-69
2023/08/11 04:29:47;;;;;;;51.08;39.88;;;;;;;;;;5072226;28;20466;-70
2023/08/11 04:32:14;;;;;;;53.25;40.78;;;;;;;;;;5072217;28;20089;-70
2023/08/11 04:34:40;;;;;;;53.78;40.78;;;;;;;;;;5072572;28;20496;-70
2023/08/11 04:37:08;;;;;;;53.03;40.22;;;;;;;;;;5055559;28;20028;-69
2023/08/11 04:39:36;;;;;;;50.10;39.97;;;;;;;;;;5056242;28;20034;-71
2023/08/11 04:42:06;;;;;;;51.83;40.88;;;;;;;;;;5073164;28;20032;-69
2023/08/11 04:44:33;;;;;;;56.00;41.33;;;;;;;;;;5056646;28;20039;-70
2023/08/11 04:47:00;;;;;;;50.63;38.20;;;;;;;;;;5071886;28;20035;-69
2023/08/11 04:49:26;;;;;;;47.45;37.80;;;;;;;;;;5071746;28;20082;-69
2023/08/11 04:51:52;;;;;;;43.30;35.88;;;;;;;;;;5055664;28;20055;-70
2023/08/11 04:54:19;;;;;;;42.80;34.90;;;;;;;;;;5072069;28;20072;-69
2023/08/11 04:56:46;;;;;;;39.13;32.47;;;;;;;;;;5090132;28;20024;-70
2023/08/11 04:59:12;;;;;;;38.67;30.95;;;;;;;;;;5072188;28;20024;-70
2023/08/11 05:01:38;;;;;;;36.33;29.15;;;;;;;;;;5090367;28;20092;-70
2023/08/11 05:04:04;;;;;;;37.45;29.27;;;;;;;;;;5090332;28;20046;-69
2023/08/11 05:06:31;;;;;;;38.20;27.35;;;;;;;;;;5090042;28;20055;-69
2023/08/11 05:08:57;;;;;;;31.40;27.38;;;;;;;;;;5072304;28;20438;-69
2023/08/11 05:11:23;;;;;;;31.15;25.60;;;;;;;;;;5090261;28;20792;-69
2023/08/11 05:13:49;;;;;;;30.30;24.73;;;;;;;;;;5072485;28;20459;-70
2023/08/11 05:16:15;;;;;;;31.60;23.73;;;;;;;;;;5090313;28;20035;-70
2023/08/11 05:18:41;;;;;;;33.38;23.33;;;;;;;;;;5090324;28;20032;-70
2023/08/11 05:21:07;;;;;;;29.05;24.13;;;;;;;;;;5070248;28;20036;-70
2023/08/11 05:23:33;;;;;;;29.65;22.30;;;;;;;;;;5062136;28;20067;-70
2023/08/11 05:26:00;;;;;;;25.92;21.33;;;;;;;;;;5094394;28;20028;-71
2023/08/11 05:28:26;;;;;;;24.27;21.38;;;;;;;;;;5094529;28;20028;-71
2023/08/11 05:30:52;;;;;;;25.40;20.23;;;;;;;;;;5076597;28;20101;-70
2023/08/11 05:33:18;;;;;;;25.50;20.10;;;;;;;;;;5094777;28;20024;-71
2023/08/11 05:35:44;;;;;;;24.02;20.45;;;;;;;;;;5093877;28;20082;-71
2023/08/11 05:38:10;;;;;;;26.25;19.75;;;;;;;;;;5094387;28;20046;-70
2023/08/11 05:40:37;;;;;;;22.25;19.60;;;;;;;;;;5094384;28;20032;-70
2023/08/11 05:43:04;;;;;;;24.70;18.92;;;;;;;;;;5094342;28;20081;-70
2023/08/11 05:45:30;;;;;;;24.73;19.90;;;;;;;;;;5093909;28;20108;-69
2023/08/11 05:47:56;;;;;;;24.08;19.75;;;;;;;;;;5075737;28;20052;-69
2023/08/11 05:50:22;;;;;;;22.52;19.27;;;;;;;;;;5093809;28;20032;-70
2023/08/11 05:52:49;;;;;;;24.00;18.60;;;;;;;;;;5075662;28;20036;-70
2023/08/11 05:55:15;;;;;;;29.83;18.88;;;;;;;;;;5094050;28;20496;-69
2023/08/11 05:57:41;;;;;;;24.88;18.63;;;;;;;;;;5093480;28;20101;-70
2023/08/11 06:00:09;;;;;;;20.92;18.33;;;;;;;;;;5075548;28;20044;-70
2023/08/11 06:02:41;;;;;;;24.65;17.98;;;;;;;;;;5059902;28;20123;-70
2023/08/11 06:05:08;;;;;;;26.23;18.42;;;;;;;;;;5093494;28;20301;-70
2023/08/11 06:07:34;;;;;;;24.55;17.88;;;;;;;;;;5092928;28;20040;-71
2023/08/11 06:10:00;;;;;;;25.67;16.98;;;;;;;;;;5093476;28;20042;-71
2023/08/11 06:12:26;;;;;;;21.67;17.02;;;;;;;;;;5093453;28;20032;-70
2023/08/11 06:14:52;;;;;;;21.48;17.63;;;;;;;;;;5093638;28;20048;-70
2023/08/11 06:17:18;;;;;;;23.83;18.08;;;;;;;;;;5071438;28;20078;-70
2023/08/11 06:19:44;;;;;;;29.92;17.38;;;;;;;;;;5055320;28;20482;-70
2023/08/11 06:22:10;;;;;;;23.30;17.02;;;;;;;;;;5068588;28;20036;-70
2023/08/11 06:24:36;;;;;;;22.70;17.80;;;;;;;;;;5075051;28;20024;-70
2023/08/11 06:27:03;;;;;;;21.70;16.90;;;;;;;;;;5074887;28;20051;-70
2023/08/11 06:29:29;;;;;;;23.65;16.55;;;;;;;;;;5092483;28;20028;-69
2023/08/11 06:31:55;;;;;;;19.08;16.38;;;;;;;;;;5092302;28;20565;-70
2023/08/11 06:34:21;;;;;;;22.55;16.92;;;;;;;;;;5092425;28;20032;-71
2023/08/11 06:36:47;;;;;;;23.42;16.80;;;;;;;;;;5090754;28;20112;-70
2023/08/11 06:39:14;;;;;;;23.83;16.90;;;;;;;;;;5092227;28;20028;-71
2023/08/11 06:41:41;;;;;;;23.48;17.63;;;;;;;;;;5092713;28;20036;-70
2023/08/11 06:44:07;;;;;;;20.00;16.48;;;;;;;;;;5084957;28;20044;-70
2023/08/11 06:46:33;;;;;;;21.48;15.82;;;;;;;;;;5072390;28;20039;-69
2023/08/11 06:48:59;;;;;;;22.55;17.35;;;;;;;;;;5072285;28;20060;-70
2023/08/11 06:51:25;;;;;;;21.38;16.48;;;;;;;;;;5072318;28;20118;-70
2023/08/11 06:53:51;;;;;;;22.88;17.55;;;;;;;;;;5054286;28;20466;-70
2023/08/11 06:56:18;;;;;;;25.13;17.85;;;;;;;;;;5055664;28;20094;-70
2023/08/11 06:58:44;;;;;;;26.45;16.88;;;;;;;;;;5073840;28;20040;-71
2023/08/11 07:01:10;;;;;;;19.25;16.98;;;;;;;;;;5091940;28;20040;-71
2023/08/11 07:03:36;;;;;;;24.42;17.05;;;;;;;;;;5092098;28;20032;-72
2023/08/11 07:06:03;;;;;;;24.10;15.93;;;;;;;;;;5092019;28;20111;-70
2023/08/11 07:08:29;;;;;;;24.63;16.55;;;;;;;;;;5091874;28;20408;-70
2023/08/11 07:10:55;;;;;;;24.20;16.08;;;;;;;;;;5057255;28;20097;-70
2023/08/11 07:13:22;;;;;;;19.17;16.15;;;;;;;;;;5092088;28;20036;-71
2023/08/11 07:15:48;;;;;;;26.45;17.17;;;;;;;;;;5091774;28;20077;-70
2023/08/11 07:18:14;;;;;;;25.17;16.55;;;;;;;;;;5080473;28;20397;-71
2023/08/11 07:20:41;;;;;;;19.05;15.10;;;;;;;;;;5071344;28;20513;-71
2023/08/11 07:23:07;;;;;;;21.00;15.68;;;;;;;;;;5071646;28;20036;-71
2023/08/11 07:25:34;;;;;;;21.05;15.50;;;;;;;;;;5072247;28;20087;-71
2023/08/11 07:28:00;;;;;;;21.67;15.55;;;;;;;;;;5071913;28;20078;-71
2023/08/11 07:30:26;;;;;;;19.35;15.63;;;;;;;;;;5053737;28;20098;-71
2023/08/11 07:32:52;;;;;;;22.40;15.25;;;;;;;;;;5071847;28;20033;-72
2023/08/11 07:35:18;;;;;;;21.33;15.82;;;;;;;;;;5071327;28;20025;-70
2023/08/11 07:37:44;;;;;;;21.13;14.73;;;;;;;;;;5071294;28;20052;-69
2023/08/11 07:40:11;;;;;;;20.67;13.63;;;;;;;;;;5071894;28;20040;-70
2023/08/11 07:42:37;;;;;;;22.10;14.23;;;;;;;;;;5071410;28;20058;-70
2023/08/11 07:45:05;;;;;;;16.83;13.13;;;;;;;;;;5071145;28;20437;-70
2023/08/11 07:47:31;;;;;;;19.00;12.63;;;;;;;;;;5070400;28;20120;-70
2023/08/11 07:49:57;;;;;;;21.65;12.10;;;;;;;;;;5071069;28;20059;-70
2023/08/11 07:52:23;;;;;;;16.00;11.48;;;;;;;;;;5071387;28;20033;-70
2023/08/11 07:54:49;;;;;;;21.42;11.88;;;;;;;;;;5071364;28;20051;-72
2023/08/11 07:57:15;;;;;;;19.17;10.77;;;;;;;;;;5053015;28;20086;-70
2023/08/11 07:59:41;;;;;;;18.08;10.15;;;;;;;;;;5070822;28;20103;-70
2023/08/11 08:02:08;;;;;;;16.33;10.55;;;;;;;;;;5053572;28;20037;-70
2023/08/11 08:04:34;;;;;;;16.52;10.05;;;;;;;;;;5052994;28;20048;-71
2023/08/11 08:07:00;;;;;;;15.02;10.18;;;;;;;;;;5070834;28;20047;-71
2023/08/11 08:09:26;;;;;;;14.82;9.13;;;;;;;;;;5052519;28;20115;-71
2023/08/11 08:11:52;;;;;;;14.55;8.43;;;;;;;;;;5070646;28;20047;-70
2023/08/11 08:14:18;;;;;;;17.23;8.23;;;;;;;;;;5070437;28;20041;-72
2023/08/11 08:16:45;;;;;;;13.25;8.23;;;;;;;;;;5036090;28;20126;-69
2023/08/11 08:19:11;;;;;;;12.20;7.25;;;;;;;;;;5052471;28;20111;-71
2023/08/11 08:21:38;;;;;;;12.32;7.68;;;;;;;;;;5079287;28;20028;-72
2023/08/11 08:24:05;;;;;;;12.85;8.00;;;;;;;;;;5090764;28;20103;-71
2023/08/11 08:26:32;;;;;;;10.52;7.38;;;;;;;;;;5072417;28;20036;-71
2023/08/11 08:28:59;;;;;;;11.65;7.60;;;;;;;;;;5090573;28;20078;-69
2023/08/11 08:31:26;;;;;;;14.95;8.13;;;;;;;;;;5090617;28;20040;-70
2023/08/11 08:33:52;;;;;;;12.48;7.10;;;;;;;;;;5072805;28;20043;-70
2023/08/11 08:36:18;;;;;;;17.25;7.18;;;;;;;;;;5090603;28;20028;-71
2023/08/11 08:38:44;;;;;;;9.73;5.95;;;;;;;;;;5072541;28;20038;-70
2023/08/11 08:41:12;;;;;;;11.40;6.28;;;;;;;;;;5072819;28;20089;-70
2023/08/11 08:43:38;;;;;;;9.02;5.80;;;;;;;;;;5091097;28;20131;-69
2023/08/11 08:46:04;;;;;;;14.70;5.82;;;;;;;;;;5090686;28;20028;-70
2023/08/11 08:48:39;;;;;;;15.32;6.15;;;;;;;;;;5072198;28;20109;-70
2023/08/11 08:51:06;;;;;;;9.32;4.63;;;;;;;;;;5090430;28;20365;-71
2023/08/11 08:53:33;;;;;;;11.80;4.57;;;;;;;;;;5090788;28;20024;-70
2023/08/11 08:56:04;;;;;;;9.55;4.50;;;;;;;;;;5090853;28;20033;-70
2023/08/11 08:58:31;;;;;;;11.30;4.25;;;;;;;;;;5089937;28;20044;-70
2023/08/11 09:00:59;;;;;;;8.95;4.43;;;;;;;;;;5090820;28;20134;-70
2023/08/11 09:03:26;;;;;;;15.38;4.93;;;;;;;;;;5090427;28;20024;-71
2023/08/11 09:05:52;;;;;;;6.82;4.65;;;;;;;;;;5072109;28;20035;-71
2023/08/11 09:08:19;;;;;;;10.82;4.28;;;;;;;;;;5090312;28;20032;-71
2023/08/11 09:10:45;;;;;;;8.75;4.20;;;;;;;;;;5090355;28;20036;-71
2023/08/11 09:13:14;;;;;;;12.57;4.60;;;;;;;;;;5090433;28;20042;-71
2023/08/11 09:15:40;;;;;;;10.43;4.45;;;;;;;;;;5073119;28;20109;-71
2023/08/11 09:18:06;;;;;;;10.95;4.05;;;;;;;;;;5090531;28;20036;-71
2023/08/11 09:20:33;;;;;;;10.80;4.15;;;;;;;;;;5089905;28;20093;-71
2023/08/11 09:22:59;;;;;;;8.55;3.80;;;;;;;;;;5072450;28;20036;-69
2023/08/11 09:25:28;;;;;;;10.55;4.13;;;;;;;;;;5072639;28;20063;-71
2023/08/11 09:27:56;;;;;;;6.28;4.05;;;;;;;;;;5090548;28;20036;-71
2023/08/11 09:30:23;;;;;;;7.60;4.25;;;;;;;;;;5090359;28;20079;-70
2023/08/11 09:32:49;;;;;;;7.88;4.40;;;;;;;;;;5072170;28;20131;-70
2023/08/11 09:35:22;;;;;;;6.72;4.05;;;;;;;;;;5089996;28;20044;-70
2023/08/11 09:37:48;;;;;;;13.82;4.85;;;;;;;;;;5089513;28;20036;-71
2023/08/11 09:40:15;;;;;;;6.38;3.85;;;;;;;;;;5055404;28;20052;-70
2023/08/11 09:42:42;;;;;;;11.55;5.65;;;;;;;;;;5090165;28;20127;-70
2023/08/11 09:45:09;;;;;;;10.73;4.60;;;;;;;;;;5071640;28;20064;-70
2023/08/11 09:47:35;;;;;;;13.27;4.47;;;;;;;;;;5071761;28;20047;-71
2023/08/11 09:50:03;;;;;;;8.55;4.38;;;;;;;;;;5071544;28;20082;-71
2023/08/11 09:52:30;;;;;;;10.30;5.63;;;;;;;;;;5089574;28;20029;-71
2023/08/11 09:54:57;;;;;;;11.80;4.43;;;;;;;;;;5089935;28;20043;-69
2023/08/11 09:57:24;;;;;;;11.75;4.20;;;;;;;;;;5089702;28;20032;-70
2023/08/11 09:59:52;;;;;;;6.10;3.83;;;;;;;;;;5089522;28;20033;-71
2023/08/11 10:02:21;;;;;;;10.45;5.45;;;;;;;;;;5089749;28;20123;-71
2023/08/11 10:04:56;;;;;;;9.32;5.25;;;;;;;;;;5054964;28;20024;-70
2023/08/11 10:07:23;;;;;;;10.05;4.57;;;;;;;;;;5089835;28;20020;-71
2023/08/11 10:09:50;;;;;;;8.85;4.95;;;;;;;;;;5071962;28;20038;-70
2023/08/11 10:12:17;;;;;;;7.85;4.97;;;;;;;;;;5093426;28;20070;-70
2023/08/11 10:14:43;;;;;;;9.63;5.55;;;;;;;;;;5093987;28;20036;-71
2023/08/11 10:17:12;;;;;;;8.65;4.20;;;;;;;;;;5093098;28;20104;-70
2023/08/11 10:19:38;;;;;;;9.25;4.75;;;;;;;;;;5092923;28;20028;-70
2023/08/11 10:22:05;;;;;;;7.97;4.32;;;;;;;;;;5092953;28;20032;-69
2023/08/11 10:24:31;;;;;;;8.80;4.35;;;;;;;;;;5075213;28;20043;-70
2023/08/11 10:26:57;;;;;;;9.32;4.65;;;;;;;;;;5093332;28;20035;-70
2023/08/11 10:29:23;;;;;;;8.93;3.88;;;;;;;;;;5074709;28;20094;-70
2023/08/11 10:31:57;;;;;;;11.77;5.25;;;;;;;;;;5074970;28;20037;-70
2023/08/11 10:34:24;;;;;;;6.20;3.42;;;;;;;;;;5093279;28;20507;-70
2023/08/11 10:36:50;;;;;;;10.55;4.70;;;;;;;;;;5074724;28;20028;-69
2023/08/11 10:39:19;;;;;;;10.30;4.18;;;;;;;;;;5092834;28;20028;-69
2023/08/11 10:41:45;;;;;;;6.53;3.80;;;;;;;;;;5093175;28;20085;-69
2023/08/11 10:44:11;;;;;;;7.03;4.00;;;;;;;;;;5093024;28;20036;-69
2023/08/11 10:46:38;;;;;;;6.47;4.03;;;;;;;;;;5092687;28;20042;-69
2023/08/11 10:49:04;;;;;;;7.10;4.28;;;;;;;;;;5092268;28;20044;-70
2023/08/11 10:51:34;;;;;;;5.82;3.80;;;;;;;;;;5092345;28;20032;-70
2023/08/11 10:54:00;;;;;;;;;;;;;;;;;;5074853;28;20036;-70
2023/08/11 10:56:31;;;;;;;6.50;4.07;;;;;;;;;;5074647;28;20015;-69
2023/08/11 10:58:57;;;;;;;;;;;;;;;;;;5092274;28;20477;-69
2023/08/11 11:01:23;;;;;;;8.27;4.05;;;;;;;;;;5092144;28;19911;-70
2023/08/11 11:03:49;;;;;;;7.40;4.10;;;;;;;;;;5092180;28;20072;-69
2023/08/11 11:06:16;;;;;;;6.07;3.72;;;;;;;;;;5092305;28;20076;-71
2023/08/11 11:08:42;;;;;;;6.90;3.38;;;;;;;;;;5091720;28;20040;-71
2023/08/11 11:11:08;;;;;;;9.10;3.70;;;;;;;;;;5091604;28;20059;-70
2023/08/11 11:13:34;;;;;;;5.50;4.10;;;;;;;;;;5092160;28;20035;-69
2023/08/11 11:16:00;;;;;;;6.32;3.45;;;;;;;;;;5091798;28;20047;-70
2023/08/11 11:18:27;;;;;;;5.60;3.50;;;;;;;;;;5060506;28;20036;-70
2023/08/11 11:20:53;;;;;;;10.27;4.50;;;;;;;;;;5071512;28;20037;-70
2023/08/11 11:23:20;;;;;;;10.18;4.95;;;;;;;;;;5072312;28;20081;-69
2023/08/11 11:25:46;;;;;;;9.48;4.20;;;;;;;;;;5071623;28;20037;-70
2023/08/11 11:28:12;;;;;;;12.07;5.22;;;;;;;;;;5071343;28;20043;-70
2023/08/11 11:30:38;;;;;;;8.90;5.03;;;;;;;;;;5071119;28;20135;-70
2023/08/11 11:33:04;;;;;;;11.90;4.40;;;;;;;;;;5071793;28;20039;-71
2023/08/11 11:35:30;;;;;;;9.70;4.75;;;;;;;;;;5071181;28;20086;-70
2023/08/11 11:37:58;;;;;;;7.18;4.18;;;;;;;;;;5053090;28;20128;-71
2023/08/11 11:40:24;;;;;;;7.45;4.53;;;;;;;;;;5071001;28;20449;-70
2023/08/11 11:42:50;;;;;;;8.15;5.07;;;;;;;;;;5072509;28;20032;-71
2023/08/11 11:45:17;;;;;;;9.35;4.75;;;;;;;;;;5071645;28;20041;-71
2023/08/11 11:47:46;;;;;;;9.88;5.95;;;;;;;;;;5071485;28;20033;-69
2023/08/11 11:50:14;;;;;;;9.43;6.00;;;;;;;;;;5070760;28;20045;-70
2023/08/11 11:52:46;;;;;;;12.65;6.10;;;;;;;;;;5071134;28;20040;-70
2023/08/11 11:55:12;;;;;;;10.68;5.80;;;;;;;;;;5071243;28;20040;-70
2023/08/11 11:57:39;;;;;;;16.25;6.43;;;;;;;;;;5070988;28;20020;-70
2023/08/11 12:00:16;;;;;;;9.95;6.43;;;;;;;;;;5070552;28;20100;-70
2023/08/11 12:02:43;;;;;;;11.32;6.43;;;;;;;;;;5071099;28;20037;-70
2023/08/11 12:05:10;;;;;;;12.45;5.80;;;;;;;;;;5053480;28;20158;-70
2023/08/11 12:07:37;;;;;;;13.52;6.15;;;;;;;;;;5073772;28;20028;-71
2023/08/11 12:10:06;;;;;;;15.60;6.88;;;;;;;;;;5074561;28;20048;-70
2023/08/11 12:12:33;;;;;;;10.32;6.07;;;;;;;;;;5074346;28;20575;-70
2023/08/11 12:15:03;;;;;;;13.25;5.97;;;;;;;;;;5075615;28;20102;-70
2023/08/11 12:17:33;;;;;;;12.38;6.00;;;;;;;;;;5064989;28;20028;-70
2023/08/11 12:20:10;;;;;;;12.68;5.15;;;;;;;;;;5070857;28;20111;-70
2023/08/11 12:22:36;;;;;;;10.25;5.22;;;;;;;;;;5076526;28;20028;-73
2023/08/11 12:25:03;;;;;;;8.38;4.88;;;;;;;;;;5072434;28;20099;-70
2023/08/11 12:27:29;;;;;;;11.75;5.25;;;;;;;;;;5045311;28;20063;-71
2023/08/11 12:29:55;;;;;;;11.77;5.55;;;;;;;;;;5071662;28;20047;-70
2023/08/11 12:32:21;;;;;;;15.02;5.85;;;;;;;;;;5078577;28;20020;-69
2023/08/11 12:34:47;;;;;;;11.23;5.55;;;;;;;;;;5074729;28;20605;-70
2023/08/11 12:37:14;;;;;;;11.82;5.72;;;;;;;;;;5074141;28;20035;-70
2023/08/11 12:39:40;;;;;;;11.95;6.20;;;;;;;;;;5052755;28;20028;-70
2023/08/11 12:42:07;;;;;;;8.82;5.45;;;;;;;;;;5075430;28;20039;-71
2023/08/11 12:44:33;;;;;;;8.57;5.20;;;;;;;;;;5075408;28;20027;-68
2023/08/11 12:47:00;;;;;;;12.68;4.30;;;;;;;;;;5071572;28;20432;-69
2023/08/11 12:49:26;;;;;;;7.78;3.90;;;;;;;;;;5050003;28;20080;-70
2023/08/11 12:51:52;;;;;;;9.57;4.55;;;;;;;;;;5073741;28;20048;-69
2023/08/11 12:54:19;;;;;;;7.18;4.65;;;;;;;;;;5071085;28;20491;-70
2023/08/11 12:56:46;;;;;;;6.75;4.55;;;;;;;;;;5069381;28;20040;-70
2023/08/11 12:59:12;;;;;;;6.97;3.88;;;;;;;;;;5070163;28;20115;-69
2023/08/11 13:01:38;;;;;;;9.10;3.92;;;;;;;;;;5047046;28;20394;-69
2023/08/11 13:04:06;;;;;;;8.63;3.58;;;;;;;;;;5073058;28;20688;-70
2023/08/11 13:06:33;;;;;;;11.98;3.67;;;;;;;;;;5075719;28;20359;-69
2023/08/11 13:08:59;;;;;;;8.82;3.97;;;;;;;;;;5073947;28;20031;-70
2023/08/11 13:11:25;;;;;;;6.65;3.38;;;;;;;;;;5054210;28;20031;-69
2023/08/11 13:13:51;;;;;;;8.50;3.80;;;;;;;;;;5071985;28;20123;-70
2023/08/11 13:16:17;;;;;;;6.10;3.70;;;;;;;;;;5072884;28;20037;-70
2023/08/11 13:18:43;;;;;;;6.70;4.30;;;;;;;;;;5076175;28;20749;-70
2023/08/11 13:21:09;;;;;;;7.75;4.28;;;;;;;;;;5075664;28;20055;-70
2023/08/11 13:23:36;;;;;;;6.65;3.70;;;;;;;;;;5058843;28;20033;-71
2023/08/11 13:26:02;;;;;;;7.75;4.18;;;;;;;;;;5070644;28;20134;-70
2023/08/11 13:28:28;;;;;;;14.15;4.13;;;;;;;;;;5070167;28;20033;-70
2023/08/11 13:30:54;;;;;;;10.98;5.15;;;;;;;;;;5069219;28;20025;-70
2023/08/11 13:33:21;;;;;;;13.55;5.57;;;;;;;;;;5078732;28;20114;-70
2023/08/11 13:35:47;;;;;;;14.18;5.88;;;;;;;;;;5090034;28;20115;-70
2023/08/11 13:38:14;;;;;;;13.27;5.88;;;;;;;;;;5090437;28;20750;-70
2023/08/11 13:40:41;;;;;;;14.27;5.70;;;;;;;;;;5086089;28;20139;-70
2023/08/11 13:43:07;;;;;;;19.58;5.53;;;;;;;;;;5072884;28;20060;-70
2023/08/11 13:45:33;;;;;;;15.55;5.68;;;;;;;;;;5091683;28;20086;-69
2023/08/11 13:47:59;;;;;;;14.52;5.32;;;;;;;;;;5094001;28;20033;-69
2023/08/11 13:50:26;;;;;;;17.30;5.05;;;;;;;;;;5049045;28;20032;-69
2023/08/11 13:52:52;;;;;;;14.75;4.35;;;;;;;;;;5081895;28;20036;-71
2023/08/11 13:55:18;;;;;;;9.52;3.40;;;;;;;;;;5067559;28;20032;-69
2023/08/11 13:57:48;;;;;;;12.35;3.40;;;;;;;;;;5091081;28;20093;-69
2023/08/11 14:00:14;;;;;;;10.65;3.78;;;;;;;;;;5081341;28;20060;-69
2023/08/11 14:02:41;;;;;;;9.40;3.75;;;;;;;;;;5087526;28;20039;-69
2023/08/11 14:05:07;;;;;;;11.57;3.88;;;;;;;;;;5093683;28;20096;-69
2023/08/11 14:07:33;;;;;;;13.40;3.40;;;;;;;;;;5093384;28;20047;-69
2023/08/11 14:09:59;;;;;;;19.35;4.80;;;;;;;;;;5084011;28;20110;-71
2023/08/11 14:12:26;;;;;;;12.40;4.00;;;;;;;;;;5067639;28;20067;-70
2023/08/11 14:14:53;;;;;;;10.30;4.15;;;;;;;;;;5080612;28;20036;-69
2023/08/11 14:17:19;;;;;;;13.65;4.40;;;;;;;;;;5055980;28;20553;-70
2023/08/11 14:19:45;;;;;;;9.68;3.72;;;;;;;;;;5054788;28;20102;-69
2023/08/11 14:22:11;;;;;;;13.23;4.70;;;;;;;;;;5068110;28;20493;-69
2023/08/11 14:24:37;;;;;;;12.23;3.95;;;;;;;;;;5070543;28;20039;-69